Latest Weather Observations for Kingaroy

IDQ60801

Issued at 10:05 am EST Wednesday 24 September 2014 (issued every 30 minutes, with the page automatically refreshed every 10 minutes)

About weather observations | Map of weather stations | Latest weather observations for QLD | Other Formats
Station Details ID: 040922 Name: KINGAROY AIRPORT Lat: -26.57 Lon: 151.84 Height: 433.67 m
Data from the previous 72 hours. | See also: Recent months at Kingaroy
Date/Time
EST
Temp
°C
App
Temp
°C
Dew
Point
Rel
Hum
%
Delta-T
°C
Wind Press
QNH
hPa
Press
MSL
hPa
Rain
since 9 am
mm
Dir
 
Spd
km/h
Gust
km/h
Spd
kts
Gust
kts
24/10:00am 20.4 18.2 10.8 54 5.3 NE 13 22 7 12 1024.8 1023.8 0.0
24/09:30am 19.7 17.9 10.9 57 4.9 E 11 22 6 12 1025.1 1024.2 0.0
24/09:00am 17.7 16.0 11.3 66 3.5 ENE 11 17 6 9 1025.5 1024.6 0.0
24/08:30am 16.8 15.1 12.3 75 2.5 E 13 17 7 9 1025.6 1024.7 0.0
24/08:00am 16.0 15.1 12.7 81 1.9 ESE 9 13 5 7 1025.5 1024.6 0.0
24/07:30am 15.1 14.3 13.0 87 1.2 E 9 15 5 8 1025.2 1024.3 0.0
24/07:00am 13.3 13.1 13.0 98 0.2 ESE 6 9 3 5 1025.0 1024.0 0.0
24/06:30am 12.4 12.3 12.2 99 0.1 ESE 4 7 2 4 1025.0 1024.0 0.0
24/06:00am 12.2 11.1 12.0 99 0.1 ESE 9 13 5 7 1024.8 1023.8 0.0
24/05:30am 12.0 11.2 11.8 99 0.1 SE 7 11 4 6 1024.7 1023.7 0.0
24/05:00am 9.2 7.8 8.9 98 0.1 SSE 6 9 3 5 1024.6 1023.6 0.0
24/04:30am 6.8 4.8 6.2 96 0.3 NW 6 7 3 4 1024.5 1023.5 0.0
24/04:00am 7.2 6.4 6.6 96 0.3 CALM 0 0 0 0 1024.6 1023.6 0.0
24/03:30am 7.4 6.2 6.5 94 0.4 E 2 6 1 3 1024.6 1023.6 0.0
24/03:00am 7.4 6.5 6.2 92 0.6 CALM 0 0 0 0 1024.8 1023.8 0.0
24/02:30am 7.9 6.1 7.0 94 0.4 S 6 9 3 5 1025.0 1024.0 0.0
24/02:00am 7.9 6.8 6.7 92 0.6 SSE 2 7 1 4 1025.2 1024.3 0.0
24/01:30am 8.1 6.9 6.6 90 0.7 SE 2 9 1 5 1025.3 1024.4 0.0
24/01:00am 8.2 6.0 6.0 86 1.0 E 7 11 4 6 1025.5 1024.6 0.0
24/12:30am 8.1 6.4 6.1 87 0.9 SSE 4 7 2 4 1025.9 1025.0 0.0
24/12:00am 8.1 7.2 6.1 87 0.9 W 0 0 0 0 1026.3 1025.3 0.0
 
Date/Time
EST
Temp
°C
App
Temp
°C
Dew
Point
Rel
Hum
%
Delta-T
°C
Wind Press
QNH
hPa
Press
MSL
hPa
Rain
since 9 am
mm
Dir
 
Spd
km/h
Gust
km/h
Spd
kts
Gust
kts
23/11:30pm 8.9 8.2 7.0 88 0.9 CALM 0 0 0 0 1026.4 1025.4 0.0
23/11:00pm 8.6 7.0 6.4 86 1.0 SE 4 6 2 3 1026.6 1025.6 0.0
23/10:30pm 9.7 7.5 6.4 80 1.6 ESE 7 9 4 5 1026.6 1025.6 0.0
23/10:00pm 11.2 9.3 7.5 78 1.8 ESE 7 9 4 5 1026.9 1025.9 0.0
23/09:30pm 11.1 9.3 7.0 76 2.0 ESE 6 7 3 4 1027.0 1026.0 0.0
23/09:00pm 11.0 9.0 6.9 76 2.0 E 7 11 4 6 1027.0 1026.0 0.0
23/08:30pm 11.8 9.4 7.1 73 2.3 E 9 11 5 6 1026.9 1025.9 0.0
23/08:00pm 13.5 10.8 7.5 67 3.0 E 11 15 6 8 1026.7 1025.7 0.0
23/07:30pm 15.3 12.4 8.1 62 3.7 E 13 19 7 10 1026.5 1025.5 0.0
23/07:00pm 15.8 13.2 7.8 59 4.1 E 11 19 6 10 1026.1 1025.1 0.0
23/06:30pm 15.5 13.2 7.3 58 4.2 ESE 9 11 5 6 1025.5 1024.6 0.0
23/06:00pm 17.3 14.3 7.9 54 4.8 E 13 20 7 11 1025.2 1024.3 0.0
23/05:30pm 18.2 14.9 8.2 52 5.2 ESE 15 24 8 13 1024.9 1023.9 0.0
23/05:00pm 19.5 15.4 7.9 47 6.1 ESE 19 28 10 15 1024.6 1023.6 0.0
23/04:30pm 19.7 15.2 6.8 43 6.6 E 20 26 11 14 1024.5 1023.5 0.0
23/04:00pm 20.6 16.6 6.5 40 7.2 E 17 30 9 16 1024.3 1023.3 0.0
23/03:30pm 20.7 15.7 6.3 39 7.4 E 22 30 12 16 1024.3 1023.3 0.0
23/03:00pm 21.4 17.0 6.5 38 7.7 E 19 28 10 15 1024.3 1023.3 0.0
23/02:30pm 21.3 16.3 6.4 38 7.7 ESE 22 32 12 17 1024.3 1023.3 0.0
23/02:00pm 21.9 16.2 6.6 37 7.9 E 26 41 14 22 1024.6 1023.6 0.0
23/01:30pm 21.4 17.2 7.3 40 7.4 E 19 35 10 19 1025.2 1024.3 0.0
23/01:00pm 21.8 18.3 8.7 43 7.0 E 17 22 9 12 1025.6 1024.7 0.0
23/12:30pm 20.0 15.5 8.4 47 6.2 ESE 22 39 12 21 1026.1 1025.1 0.0
23/12:00pm 20.0 15.3 9.3 50 5.8 ESE 24 35 13 19 1026.6 1025.6 0.0
23/11:30am 19.2 14.1 9.1 52 5.4 E 26 37 14 20 1027.1 1026.2 0.0
23/11:00am 19.0 14.3 9.2 53 5.2 ESE 24 35 13 19 1027.6 1026.7 0.0
23/10:30am 18.7 14.3 10.5 59 4.5 ESE 24 39 13 21 1028.0 1027.1 0.0
23/10:00am 18.6 15.0 11.7 64 3.8 ESE 22 35 12 19 1028.4 1027.5 0.0
23/09:30am 17.4 13.1 12.1 71 3.0 ESE 26 43 14 23 1028.7 1027.7 0.0
23/09:00am 16.7 13.1 13.0 79 2.1 ESE 24 39 13 21 1028.7 1027.7 0.6
23/08:30am 14.8 12.4 12.5 86 1.3 ESE 17 28 9 15 1028.6 1027.6 0.6
23/08:00am 13.8 11.2 12.0 89 1.0 ESE 17 24 9 13 1028.3 1027.4 0.6
23/07:30am 13.4 10.9 12.3 93 0.6 ESE 17 26 9 14 1028.1 1027.2 0.6
23/07:00am 13.0 10.0 12.1 94 0.5 ESE 19 26 10 14 1027.5 1026.6 0.6
23/06:30am 12.9 10.7 12.1 95 0.4 SE 15 22 8 12 1027.2 1026.3 0.6
23/06:00am 12.8 10.6 12.2 96 0.3 ESE 15 20 8 11 1027.0 1026.0 0.4
23/05:30am 12.8 11.0 12.2 96 0.3 ESE 13 20 7 11 1026.6 1025.6 0.2
23/05:00am 12.8 10.6 12.0 95 0.4 SE 15 26 8 14 1026.3 1025.3 0.0
23/04:30am 12.7 10.4 11.9 95 0.4 SE 15 22 8 12 1025.8 1024.9 0.0
23/04:00am 12.6 10.7 11.8 95 0.4 SE 13 20 7 11 1025.7 1024.8 0.0
23/03:30am 12.6 11.1 11.8 95 0.4 SE 11 17 6 9 1025.7 1024.8 0.0
23/03:00am 12.8 10.9 11.9 94 0.5 SE 13 20 7 11 1025.9 1025.0 0.0
23/02:30am 13.0 11.4 11.7 92 0.7 SE 11 17 6 9 1026.1 1025.1 0.0
23/02:00am 13.0 10.7 11.6 91 0.8 SE 15 20 8 11 1026.3 1025.3 0.0
23/01:30am 13.1 10.0 11.7 91 0.8 SSE 19 28 10 15 1026.5 1025.5 0.0
23/01:00am 13.1 10.3 11.5 90 0.9 SE 17 26 9 14 1026.8 1025.8 0.0
23/12:30am 13.2 11.1 11.3 88 1.0 SE 13 19 7 10 1027.1 1026.2 0.0
23/12:00am 13.8 11.7 11.3 85 1.3 SE 13 22 7 12 1027.6 1026.7 0.0
 
Date/Time
EST
Temp
°C
App
Temp
°C
Dew
Point
Rel
Hum
%
Delta-T
°C
Wind Press
QNH
hPa
Press
MSL
hPa
Rain
since 9 am
mm
Dir
 
Spd
km/h
Gust
km/h
Spd
kts
Gust
kts
22/11:30pm 13.9 11.8 11.1 83 1.5 SE 13 20 7 11 1027.7 1026.8 0.0
22/11:00pm 14.0 11.9 11.0 82 1.6 SE 13 22 7 12 1027.8 1026.9 0.0
22/10:30pm 14.1 12.3 10.7 80 1.8 ESE 11 17 6 9 1027.8 1026.9 0.0
22/10:00pm 14.3 11.6 10.5 78 2.0 SE 15 24 8 13 1027.6 1026.7 0.0
22/09:30pm 14.2 11.7 9.8 75 2.3 ESE 13 19 7 10 1027.6 1026.7 0.0
22/09:00pm 14.8 11.6 9.8 72 2.6 ESE 17 28 9 15 1027.6 1026.7 0.0
22/08:30pm 14.9 11.0 9.5 70 2.8 E 20 28 11 15 1027.6 1026.7 0.0
22/08:00pm 15.1 11.3 9.0 67 3.2 E 19 26 10 14 1027.6 1026.7 0.0
22/07:30pm 15.1 11.6 8.8 66 3.3 ESE 17 24 9 13 1027.1 1026.2 0.0
22/07:00pm 15.4 12.2 8.4 63 3.6 ESE 15 20 8 11 1026.7 1025.7 0.0
22/06:30pm 15.9 12.0 8.6 62 3.8 ESE 19 28 10 15 1026.2 1025.2 0.0
22/06:00pm 16.2 12.3 8.7 61 3.9 ESE 19 30 10 16 1025.9 1025.0 0.0
22/05:30pm 16.6 13.2 9.1 61 4.0 ESE 17 28 9 15 1025.3 1024.4 0.0
22/05:00pm 17.1 13.5 8.3 56 4.6 ESE 17 24 9 13 1025.4 1024.5 0.0
22/04:30pm 17.6 13.6 8.2 54 4.9 ESE 19 30 10 16 1025.2 1024.3 0.0
22/04:00pm 18.0 13.7 9.4 57 4.6 ESE 22 35 12 19 1025.2 1024.3 0.0
22/03:30pm 18.1 13.5 9.5 57 4.6 E 24 32 13 17 1025.0 1024.0 0.0
22/03:00pm 17.9 13.7 9.8 59 4.4 ESE 22 30 12 16 1025.1 1024.2 0.0
22/02:30pm 17.9 12.6 10.0 60 4.3 ESE 28 41 15 22 1025.0 1024.0 0.0
22/02:00pm 18.2 13.3 9.8 58 4.5 ESE 26 39 14 21 1025.3 1024.4 0.0
22/01:30pm 18.0 13.2 8.8 55 4.9 ESE 24 41 13 22 1025.3 1024.4 0.0
22/01:00pm 18.4 14.4 8.4 52 5.2 ESE 19 28 10 15 1025.4 1024.5 0.0
22/12:30pm 18.6 14.2 8.8 53 5.2 ESE 22 37 12 20 1025.9 1025.0 0.0
22/12:00pm 18.0 12.7 8.6 54 4.9 ESE 26 37 14 20 1026.3 1025.3 0.0
22/11:30am 18.1 13.8 9.2 56 4.8 ESE 22 35 12 19 1026.6 1025.6 0.0
22/11:00am 17.4 12.8 9.6 60 4.2 ESE 24 33 13 18 1026.9 1025.9 0.0
22/10:30am 17.6 12.9 10.5 63 3.9 ESE 26 37 14 20 1027.2 1026.3 0.0
22/10:00am 16.7 13.2 10.8 68 3.2 ESE 20 32 11 17 1027.4 1026.5 0.0
22/09:30am 15.8 12.1 10.1 69 3.1 ESE 20 32 11 17 1027.6 1026.7 0.0
22/09:00am 15.7 11.7 10.5 71 2.8 ESE 22 35 12 19 1027.6 1026.7 1.8
22/08:30am 15.1 12.2 11.1 77 2.2 ESE 17 24 9 13 1027.4 1026.5 1.8
22/08:00am 14.4 10.9 11.0 80 1.8 ESE 20 33 11 18 1027.1 1026.2 1.8
22/07:30am 14.4 11.0 11.4 82 1.6 ESE 20 35 11 19 1026.9 1025.9 1.8
22/07:00am 13.6 9.9 11.5 87 1.1 ESE 22 32 12 17 1026.2 1025.2 1.8
22/06:30am 13.0 11.0 11.4 90 0.9 ESE 13 24 7 13 1025.8 1024.9 1.8
22/06:00am 12.8 10.0 11.2 90 0.9 ESE 17 28 9 15 1025.1 1024.2 1.8
22/05:30am 12.6 9.4 11.3 92 0.7 ESE 19 33 10 18 1024.9 1023.9 1.8
22/05:00am 12.4 9.5 11.0 91 0.7 SE 17 24 9 13 1024.8 1023.8 1.8
22/04:30am 12.6 9.7 11.0 90 0.9 ESE 17 24 9 13 1024.9 1023.9 1.8
22/04:00am 12.5 10.3 10.9 90 0.9 ESE 13 19 7 10 1025.0 1024.0 1.8
22/03:30am 12.7 10.5 10.8 88 1.0 ESE 13 20 7 11 1024.9 1023.9 1.8
22/03:00am 12.7 10.4 10.6 87 1.1 ESE 13 20 7 11 1025.0 1024.0 1.8
22/02:30am 12.8 10.6 10.7 87 1.1 ESE 13 22 7 12 1025.2 1024.3 1.8
22/02:00am 12.8 10.5 10.5 86 1.2 SE 13 24 7 13 1025.3 1024.4 1.8
22/01:30am 13.0 10.7 10.5 85 1.3 ESE 13 20 7 11 1025.9 1025.0 1.8
22/01:00am 13.2 11.0 10.7 85 1.3 ESE 13 22 7 12 1026.4 1025.4 1.8
22/12:30am 13.2 11.0 10.7 85 1.3 ESE 13 20 7 11 1026.7 1025.7 1.8
22/12:00am 13.4 10.9 10.9 85 1.3 ESE 15 20 8 11 1026.8 1025.8 1.8
 
Date/Time
EST
Temp
°C
App
Temp
°C
Dew
Point
Rel
Hum
%
Delta-T
°C
Wind Press
QNH
hPa
Press
MSL
hPa
Rain
since 9 am
mm
Dir
 
Spd
km/h
Gust
km/h
Spd
kts
Gust
kts
21/11:30pm 13.6 11.8 10.9 84 1.5 SE 11 22 6 12 1027.1 1026.2 1.8
21/11:00pm 13.5 12.4 10.7 83 1.5 SE 7 11 4 6 1027.2 1026.3 1.8
21/10:30pm 13.8 11.9 10.4 80 1.8 ESE 11 17 6 9 1027.2 1026.3 1.8
21/10:00pm 14.1 12.3 10.7 80 1.8 ESE 11 15 6 8 1027.1 1026.2 1.8
21/09:30pm 13.9 13.5 11.1 83 1.5 SE 4 7 2 4 1027.2 1026.3 1.8
21/09:00pm 13.9 13.1 11.1 83 1.5 SSE 6 7 3 4 1027.2 1026.3 1.8
21/08:30pm 14.3 13.3 10.9 80 1.8 SE 7 11 4 6 1027.1 1026.2 1.8
21/08:00pm 14.6 12.5 11.0 79 1.9 E 13 17 7 9 1026.9 1025.9 1.8
21/07:30pm 14.5 13.1 10.9 79 1.9 ESE 9 17 5 9 1026.6 1025.6 1.8
21/07:00pm 14.4 12.6 10.8 79 1.9 ESE 11 15 6 8 1025.9 1025.0 1.8
21/06:30pm 14.5 12.0 10.9 79 1.9 E 15 22 8 12 1025.4 1024.5 1.8
21/06:00pm 14.3 11.6 10.5 78 2.0 E 15 20 8 11 1025.0 1024.0 1.8
21/05:30pm 13.7 11.6 11.2 85 1.4 E 13 19 7 10 1024.6 1023.6 1.8
21/05:00pm 14.1 12.7 12.1 88 1.1 ESE 11 15 6 8 1024.2 1023.2 1.4
21/04:30pm 14.4 12.1 11.9 85 1.4 E 15 19 8 10 1024.0 1023.0 0.6
21/04:00pm 15.6 13.3 10.6 72 2.7 SE 13 19 7 10 1023.5 1022.6 0.0
21/03:30pm 16.6 13.0 10.5 67 3.3 ESE 20 26 11 14 1023.2 1022.3 0.0
21/03:00pm 17.9 11.9 8.5 54 4.9 E 30 39 16 21 1023.1 1022.2 0.0
21/02:30pm 18.8 14.4 7.6 48 5.8 E 20 28 11 15 1023.0 1022.0 0.0
21/02:00pm 19.9 14.9 7.9 46 6.3 E 24 35 13 19 1022.9 1021.9 0.0
21/01:30pm 19.6 15.3 7.7 46 6.2 E 20 32 11 17 1023.5 1022.6 0.0
21/01:00pm 19.9 15.6 7.9 46 6.3 E 20 30 11 16 1023.7 1022.7 0.0
21/12:30pm 20.0 14.9 7.7 45 6.5 ESE 24 33 13 18 1023.9 1022.9 0.0
21/12:00pm 20.1 15.3 8.8 48 6.0 E 24 39 13 21 1024.6 1023.6 0.0
21/11:30am 19.7 14.7 8.1 47 6.1 E 24 37 13 20 1025.1 1024.2 0.0
21/11:00am 18.3 13.7 8.3 52 5.2 E 22 33 12 18 1025.8 1024.9 0.0
21/10:30am 17.7 12.0 8.3 54 4.9 E 28 39 15 21 1026.1 1025.1 0.0

Other Formats:

Comma delimited format used in spreadsheet applications
http://www.bom.gov.au/fwo/IDQ60801/IDQ60801.94549.axf

JavaScript Object Notation format (JSON) in row-major order
http://www.bom.gov.au/fwo/IDQ60801/IDQ60801.94549.json